EDDH/HAM METAR and TAF weather

Enter ICAO airport designator
Station Type Date Time Source
EDDH METAR 2022/01/29 01:50 UTC NOAA

EDDH 290150Z 23012KT 6000 -RA FEW010 BKN012 05/04 Q1021 BECMG BKN008


Station Type Date Time Source
EDDH Decoded METAR 2022/01/29 01:50 UTC NOAA

Hamburg-Fuhlsbuettel, Germany (EDDH) 53-38N 010-00E 15M
Jan 28, 2022 - 08:50 PM EST / 2022.01.29 0150 UTC
Wind: from the SW (230 degrees) at 14 MPH (12 KT):0
Visibility: 3 mile(s):0
Sky conditions: mostly cloudy
Weather: light rain
Temperature: 41 F (5 C)
Dew Point: 39 F (4 C)
Relative Humidity: 93%
Pressure (altimeter): 30.15 in. Hg (1021 hPa)
ob: EDDH 290150Z 23012KT 6000 -RA FEW010 BKN012 05/04 Q1021 BECMG BKN008
cycle: 2

Station Type Date Time Source
EDDH TAF 2022/01/28 18:37 UTC NOAA

TAF EDDH 281700Z 2818/2924 29008KT 9999 BKN030
BECMG 2818/2820 23008KT
BECMG 2823/2901 23013KT SCT007 BKN012
BECMG 2901/2903 BKN007
BECMG 2903/2905 24015G25KT 4000 -RADZ PROB40
TEMPO 2905/2912 2000 DZ BKN004
BECMG 2909/2912 27020G35KT 9999
BECMG 2911/2913 SCT012 BKN020
TEMPO 2913/2924 28020G45KT PROB30
TEMPO 2915/2924 29025G50KT

Example: see airport list